Time;durP1;ratioP1;P1;durP2;ratioP2;P2;SDS_P1;SDS_P2;PMS_P1;PMS_P2;Temp;Humidity;BMP_temperature;BMP_pressure;BME280_temperature;BME280_humidity;BME280_pressure;Samples;Min_cycle;Max_cycle;Signal;HPM_P1;HPM_P2
2022/06/29 00:02:11;;;;;;;4.13;2.50;;;16.10;99.90;;;;;;5094503;28;20729;-67
2022/06/29 00:04:37;;;;;;;2.88;2.17;;;16.10;99.90;;;;;;5095867;28;20170;-67
2022/06/29 00:07:03;;;;;;;3.78;2.10;;;16.00;99.90;;;;;;5095761;28;20208;-67
2022/06/29 00:09:28;;;;;;;2.75;2.15;;;16.00;99.90;;;;;;5095916;28;20188;-67
2022/06/29 00:11:54;;;;;;;2.55;2.30;;;15.90;99.90;;;;;;5094602;28;20267;-67
2022/06/29 00:14:20;;;;;;;3.38;2.10;;;15.80;99.90;;;;;;5095924;28;20173;-67
2022/06/29 00:16:45;;;;;;;2.45;2.25;;;15.80;99.90;;;;;;5096172;28;20712;-67
2022/06/29 00:19:11;;;;;;;5.93;2.50;;;15.80;99.90;;;;;;5096093;28;20707;-67
2022/06/29 00:21:37;;;;;;;3.90;2.45;;;15.70;99.90;;;;;;5096527;28;20170;-67
2022/06/29 00:24:03;;;;;;;2.65;2.45;;;15.60;99.90;;;;;;5095023;28;20176;-67
2022/06/29 00:26:28;;;;;;;4.38;2.30;;;15.50;99.90;;;;;;5095584;28;20195;-67
2022/06/29 00:28:54;;;;;;;5.13;2.95;;;15.50;99.90;;;;;;5094232;28;20211;-67
2022/06/29 00:31:20;;;;;;;3.35;2.47;;;15.40;99.90;;;;;;5094268;28;20185;-67
2022/06/29 00:33:46;;;;;;;2.33;2.22;;;15.30;99.90;;;;;;5095242;28;20183;-67
2022/06/29 00:36:12;;;;;;;2.83;2.50;;;15.20;99.90;;;;;;5093919;28;20693;-67
2022/06/29 00:38:38;;;;;;;2.95;2.50;;;15.30;99.90;;;;;;5093128;28;20260;-67
2022/06/29 00:41:03;;;;;;;3.95;2.42;;;15.30;99.90;;;;;;5095646;28;20196;-67
2022/06/29 00:43:29;;;;;;;2.83;2.30;;;15.30;99.90;;;;;;5095303;28;20173;-67
2022/06/29 00:45:55;;;;;;;2.78;2.58;;;15.30;99.90;;;;;;5095610;28;20564;-67
2022/06/29 00:48:21;;;;;;;3.60;2.40;;;15.30;99.90;;;;;;5095302;28;20199;-67
2022/06/29 00:50:48;;;;;;;8.00;2.47;;;15.30;99.90;;;;;;5095428;28;20248;-67
2022/06/29 00:53:16;;;;;;;2.30;2.13;;;15.30;99.90;;;;;;5095219;28;20227;-67
2022/06/29 00:55:46;;;;;;;3.55;2.53;;;15.30;99.90;;;;;;5093486;28;20245;-67
2022/06/29 00:58:14;;;;;;;3.70;2.55;;;15.30;99.90;;;;;;5095414;28;20164;-68
2022/06/29 01:00:40;;;;;;;3.78;2.50;;;15.30;99.90;;;;;;5095127;28;20208;-67
2022/06/29 01:03:07;;;;;;;3.10;2.80;;;15.30;99.90;;;;;;5094934;28;20169;-67
2022/06/29 01:05:33;;;;;;;3.03;2.60;;;15.30;99.90;;;;;;5093343;28;20174;-67
2022/06/29 01:07:59;;;;;;;3.10;2.50;;;15.30;99.90;;;;;;5094904;28;20582;-67
2022/06/29 01:10:26;;;;;;;3.95;2.55;;;15.20;99.90;;;;;;5094541;28;20181;-67
2022/06/29 01:12:52;;;;;;;4.07;2.38;;;15.20;99.90;;;;;;5094834;28;20176;-67
2022/06/29 01:15:19;;;;;;;4.15;2.83;;;15.10;99.90;;;;;;5094270;28;20208;-67
2022/06/29 01:17:45;;;;;;;2.60;2.40;;;15.10;99.90;;;;;;5094139;28;20302;-67
2022/06/29 01:20:11;;;;;;;3.15;2.70;;;15.10;99.90;;;;;;5094362;28;20209;-67
2022/06/29 01:22:38;;;;;;;4.20;2.80;;;15.10;99.90;;;;;;5094292;28;20184;-67
2022/06/29 01:25:04;;;;;;;3.13;2.50;;;14.90;99.90;;;;;;5094244;28;20230;-67
2022/06/29 01:27:30;;;;;;;2.90;2.45;;;14.90;99.90;;;;;;5094326;28;20238;-67
2022/06/29 01:29:56;;;;;;;6.63;3.10;;;14.90;99.90;;;;;;5093004;28;20172;-67
2022/06/29 01:32:22;;;;;;;3.15;2.80;;;15.00;99.90;;;;;;5094848;28;20184;-67
2022/06/29 01:34:48;;;;;;;2.97;2.65;;;15.10;99.90;;;;;;5093877;28;20181;-67
2022/06/29 01:37:14;;;;;;;2.92;2.70;;;15.10;99.90;;;;;;5094192;28;20193;-67
2022/06/29 01:39:41;;;;;;;4.82;2.80;;;15.10;99.90;;;;;;5094032;28;20169;-67
2022/06/29 01:42:09;;;;;;;3.92;2.72;;;15.10;99.90;;;;;;5094029;28;20165;-67
2022/06/29 01:44:36;;;;;;;4.05;2.42;;;15.10;99.90;;;;;;5094226;28;20169;-67
2022/06/29 01:47:03;;;;;;;4.03;2.55;;;15.00;99.90;;;;;;5093963;28;20200;-67
2022/06/29 01:49:28;;;;;;;5.35;2.53;;;15.00;99.90;;;;;;5093491;28;20191;-67
2022/06/29 01:51:55;;;;;;;5.95;2.78;;;15.00;99.90;;;;;;5093951;28;20169;-67
2022/06/29 01:54:21;;;;;;;6.03;3.17;;;15.00;99.90;;;;;;5093851;28;20261;-67
2022/06/29 01:56:47;;;;;;;7.13;2.90;;;15.00;99.90;;;;;;5094011;28;20634;-67
2022/06/29 01:59:13;;;;;;;2.90;2.60;;;15.00;99.90;;;;;;5094107;28;20657;-67
2022/06/29 02:01:39;;;;;;;3.05;2.70;;;15.00;99.90;;;;;;5092440;28;20173;-67
2022/06/29 02:04:05;;;;;;;5.53;2.65;;;15.00;99.90;;;;;;5092247;28;20188;-67
2022/06/29 02:06:32;;;;;;;2.85;2.55;;;15.00;99.90;;;;;;5092522;28;20196;-67
2022/06/29 02:08:58;;;;;;;3.55;2.67;;;15.00;99.90;;;;;;5093849;28;20557;-67
2022/06/29 02:11:24;;;;;;;6.38;2.90;;;15.00;99.90;;;;;;5093779;28;20169;-67
2022/06/29 02:13:50;;;;;;;3.53;2.92;;;15.00;99.90;;;;;;5094068;28;20246;-67
2022/06/29 02:16:16;;;;;;;3.78;2.67;;;15.00;99.90;;;;;;5094291;28;20262;-67
2022/06/29 02:18:43;;;;;;;5.20;2.83;;;15.00;99.90;;;;;;5093999;28;20173;-67
2022/06/29 02:21:09;;;;;;;3.83;2.63;;;15.00;99.90;;;;;;5093972;28;20600;-67
2022/06/29 02:23:35;;;;;;;3.55;3.03;;;14.90;99.90;;;;;;5094092;28;20236;-67
2022/06/29 02:26:01;;;;;;;3.50;2.90;;;14.90;99.90;;;;;;5092546;28;20225;-67
2022/06/29 02:28:26;;;;;;;4.43;3.40;;;14.90;99.90;;;;;;5094453;28;20627;-67
2022/06/29 02:36:21;;;;;;;4.68;3.30;;;14.90;99.90;;;;;;5093618;28;20250;-67
2022/06/29 02:38:47;;;;;;;4.45;3.10;;;14.90;99.90;;;;;;5093532;28;20573;-67
2022/06/29 02:41:13;;;;;;;3.95;3.33;;;14.90;99.90;;;;;;5093547;28;20188;-67
2022/06/29 02:43:39;;;;;;;6.97;3.40;;;14.90;99.90;;;;;;5093497;28;20626;-68
2022/06/29 02:46:05;;;;;;;4.18;3.40;;;14.80;99.90;;;;;;5093433;28;20193;-67
2022/06/29 02:48:32;;;;;;;4.28;3.08;;;14.80;99.90;;;;;;5093235;28;20642;-67
2022/06/29 02:50:59;;;;;;;3.20;2.90;;;14.80;99.90;;;;;;5093285;28;20192;-67
2022/06/29 02:53:26;;;;;;;7.85;3.30;;;14.80;99.90;;;;;;5093836;28;20180;-67
2022/06/29 02:55:52;;;;;;;4.90;3.10;;;14.90;99.90;;;;;;5093193;28;20748;-67
2022/06/29 02:58:17;;;;;;;4.47;3.03;;;14.80;99.90;;;;;;5093727;28;20173;-67
2022/06/29 03:00:43;;;;;;;3.75;2.90;;;14.80;99.90;;;;;;5093791;28;20522;-67
2022/06/29 03:03:09;;;;;;;9.52;3.17;;;14.70;99.90;;;;;;5095671;28;20165;-67
2022/06/29 03:05:34;;;;;;;5.35;3.30;;;14.70;99.90;;;;;;5097245;28;20731;-67
2022/06/29 03:08:00;;;;;;;2.95;2.70;;;14.70;99.90;;;;;;5095686;28;20177;-67
2022/06/29 03:10:26;;;;;;;4.43;3.35;;;14.70;99.90;;;;;;5096965;28;20173;-67
2022/06/29 03:12:52;;;;;;;3.25;2.95;;;14.60;99.90;;;;;;5096870;28;20177;-67
2022/06/29 03:15:18;;;;;;;3.58;3.10;;;14.60;99.90;;;;;;5095445;28;20216;-67
2022/06/29 03:17:44;;;;;;;4.47;3.38;;;14.60;99.90;;;;;;5095491;28;20189;-67
2022/06/29 03:20:13;;;;;;;5.32;3.42;;;14.50;99.90;;;;;;5097243;28;20177;-69
2022/06/29 03:22:38;;;;;;;5.43;3.83;;;14.50;99.90;;;;;;5096125;28;20177;-69
2022/06/29 03:25:05;;;;;;;6.00;3.80;;;14.50;99.90;;;;;;5097606;28;20181;-69
2022/06/29 03:27:33;;;;;;;6.43;3.40;;;14.60;99.90;;;;;;5096118;28;20279;-69
2022/06/29 03:29:59;;;;;;;7.40;3.45;;;14.60;99.90;;;;;;5096680;28;20248;-67
2022/06/29 03:32:25;;;;;;;6.05;3.45;;;14.60;99.90;;;;;;5096858;28;20230;-67
2022/06/29 03:34:50;;;;;;;6.88;3.63;;;14.60;99.90;;;;;;5096250;28;20173;-67
2022/06/29 03:37:16;;;;;;;7.57;4.15;;;14.60;99.90;;;;;;5096444;28;20213;-67
2022/06/29 03:39:44;;;;;;;4.80;3.53;;;14.70;99.90;;;;;;5095252;28;20537;-67
2022/06/29 03:42:10;;;;;;;6.43;3.45;;;14.70;99.90;;;;;;5096811;28;20248;-67
2022/06/29 03:44:35;;;;;;;5.22;3.55;;;14.70;99.90;;;;;;5096828;28;20227;-67
2022/06/29 03:47:01;;;;;;;5.72;3.40;;;14.70;99.90;;;;;;5096967;28;20242;-67
2022/06/29 03:49:27;;;;;;;4.20;3.38;;;14.70;99.90;;;;;;5096539;28;20597;-67
2022/06/29 03:51:52;;;;;;;5.30;3.95;;;14.80;99.90;;;;;;5096888;28;20177;-67
2022/06/29 03:54:18;;;;;;;5.30;3.72;;;14.80;99.90;;;;;;5097447;28;20518;-67
2022/06/29 03:56:44;;;;;;;5.85;3.88;;;14.80;99.90;;;;;;5094669;28;20589;-67
2022/06/29 03:59:10;;;;;;;5.25;3.42;;;14.80;99.90;;;;;;5096128;28;20173;-67
2022/06/29 04:01:35;;;;;;;4.75;3.45;;;14.80;99.90;;;;;;5096007;28;20601;-67
2022/06/29 04:04:01;;;;;;;4.15;3.47;;;14.90;99.90;;;;;;5095722;28;20299;-67
2022/06/29 04:06:27;;;;;;;10.07;3.70;;;14.90;99.90;;;;;;5094600;28;20201;-67
2022/06/29 04:08:53;;;;;;;4.60;3.40;;;14.90;99.90;;;;;;5094488;28;20184;-67
2022/06/29 04:14:02;;;;;;;5.18;3.70;;;14.90;99.90;;;;;;5096125;28;20214;-67
2022/06/29 04:16:28;;;;;;;6.38;3.60;;;14.90;99.90;;;;;;5095325;28;20217;-67
2022/06/29 04:18:54;;;;;;;4.78;4.15;;;14.90;99.90;;;;;;5093961;28;20183;-67
2022/06/29 04:21:20;;;;;;;3.75;3.30;;;14.90;99.90;;;;;;5095767;28;20174;-67
2022/06/29 04:23:45;;;;;;;4.30;3.65;;;15.00;99.90;;;;;;5095505;28;20205;-67
2022/06/29 04:26:11;;;;;;;5.45;3.97;;;15.00;99.90;;;;;;5094120;28;20217;-67
2022/06/29 04:28:37;;;;;;;6.13;3.63;;;15.00;99.90;;;;;;5095349;28;20201;-67
2022/06/29 04:31:02;;;;;;;6.03;3.72;;;15.00;99.90;;;;;;5095247;28;20694;-67
2022/06/29 04:33:28;;;;;;;7.70;3.60;;;15.10;99.90;;;;;;5095060;28;20204;-67
2022/06/29 04:35:54;;;;;;;7.50;4.05;;;15.20;99.90;;;;;;5093749;28;20213;-67
2022/06/29 04:38:20;;;;;;;5.63;3.85;;;15.20;99.90;;;;;;5095757;28;20256;-67
2022/06/29 04:40:45;;;;;;;6.47;3.85;;;15.30;99.90;;;;;;5093853;28;20222;-67
2022/06/29 04:43:11;;;;;;;6.13;4.40;;;15.30;99.90;;;;;;5095041;28;20183;-67
2022/06/29 04:48:21;;;;;;;6.05;3.92;;;15.40;99.90;;;;;;5095022;28;20167;-67
2022/06/29 04:50:47;;;;;;;5.15;3.60;;;15.50;99.90;;;;;;5095192;28;20541;-67
2022/06/29 04:53:12;;;;;;;5.47;3.92;;;15.60;99.90;;;;;;5095351;28;20622;-67
2022/06/29 04:55:38;;;;;;;8.95;3.95;;;15.70;99.90;;;;;;5094820;28;20216;-67
2022/06/29 04:58:04;;;;;;;5.63;4.00;;;15.70;99.90;;;;;;5093503;28;20590;-67
2022/06/29 05:00:30;;;;;;;7.72;3.60;;;15.80;99.90;;;;;;5093480;28;20687;-67
2022/06/29 05:02:55;;;;;;;6.35;3.80;;;15.80;99.90;;;;;;5094748;28;20203;-67
2022/06/29 05:05:21;;;;;;;5.72;3.40;;;15.80;99.90;;;;;;5094357;28;20223;-67
2022/06/29 05:07:47;;;;;;;8.32;3.80;;;15.90;99.90;;;;;;5094510;28;20193;-66
2022/06/29 05:10:13;;;;;;;4.40;4.00;;;16.00;99.90;;;;;;5094561;28;20169;-67
2022/06/29 05:12:39;;;;;;;5.28;4.10;;;16.10;99.90;;;;;;5094496;28;20238;-67
2022/06/29 05:15:08;;;;;;;5.53;3.70;;;16.10;99.90;;;;;;5094263;28;20185;-67
2022/06/29 05:17:36;;;;;;;7.55;4.20;;;16.20;99.90;;;;;;5093068;28;20681;-67
2022/06/29 05:20:08;;;;;;;4.55;3.80;;;16.30;99.90;;;;;;5094162;28;20204;-67
2022/06/29 05:22:34;;;;;;;4.97;3.75;;;16.30;99.90;;;;;;5093026;28;20168;-66
2022/06/29 05:25:01;;;;;;;5.10;3.95;;;16.40;99.90;;;;;;5093932;28;20637;-66
2022/06/29 05:27:27;;;;;;;5.45;3.15;;;16.50;99.90;;;;;;5092774;28;20193;-66
2022/06/29 05:29:53;;;;;;;4.95;3.70;;;16.50;99.90;;;;;;5095086;28;20145;-64
2022/06/29 05:32:19;;;;;;;5.30;3.88;;;16.60;99.90;;;;;;5094321;28;20504;-64
2022/06/29 05:34:44;;;;;;;3.85;3.25;;;16.60;99.90;;;;;;5094036;28;20166;-64
2022/06/29 05:37:10;;;;;;;6.35;3.60;;;16.70;99.90;;;;;;5092558;28;20209;-64
2022/06/29 05:39:36;;;;;;;6.45;3.78;;;16.90;99.90;;;;;;5094233;28;20174;-64
2022/06/29 05:42:02;;;;;;;8.57;4.10;;;17.00;99.90;;;;;;5093935;28;20197;-64
2022/06/29 05:44:27;;;;;;;5.00;4.03;;;17.20;99.90;;;;;;5094123;28;20173;-64
2022/06/29 05:46:54;;;;;;;5.05;3.50;;;17.30;99.90;;;;;;5093878;28;20197;-64
2022/06/29 05:49:19;;;;;;;3.40;3.08;;;17.40;99.90;;;;;;5093661;28;20260;-65
2022/06/29 05:51:45;;;;;;;4.30;3.40;;;17.60;99.90;;;;;;5092608;28;20216;-64
2022/06/29 05:54:11;;;;;;;4.28;3.17;;;17.70;99.90;;;;;;5093739;28;20330;-64
2022/06/29 05:56:36;;;;;;;3.80;2.97;;;17.80;99.90;;;;;;5093587;28;20212;-64
2022/06/29 05:59:02;;;;;;;9.18;3.40;;;18.00;99.90;;;;;;5093973;28;20538;-64
2022/06/29 06:01:28;;;;;;;5.85;3.65;;;18.00;99.90;;;;;;5093929;28;20169;-64
2022/06/29 06:03:54;;;;;;;4.78;2.90;;;18.10;99.90;;;;;;5093402;28;20173;-64
2022/06/29 06:06:19;;;;;;;3.65;2.90;;;18.10;99.90;;;;;;5092264;28;20193;-65
2022/06/29 06:08:45;;;;;;;3.00;2.80;;;18.10;99.90;;;;;;5094065;28;20588;-64
2022/06/29 06:11:11;;;;;;;4.10;2.67;;;18.10;99.90;;;;;;5093840;28;20183;-64
2022/06/29 06:13:37;;;;;;;2.70;2.50;;;18.10;99.90;;;;;;5092135;28;20185;-66
2022/06/29 06:16:03;;;;;;;4.25;3.20;;;18.10;99.90;;;;;;5091946;28;20239;-64
2022/06/29 06:18:29;;;;;;;5.35;3.08;;;18.10;99.90;;;;;;5093197;28;20256;-64
2022/06/29 06:20:55;;;;;;;4.60;3.10;;;18.20;99.90;;;;;;5093411;28;20272;-64
2022/06/29 06:23:21;;;;;;;4.00;2.95;;;18.30;99.90;;;;;;5093639;28;20161;-66
2022/06/29 06:25:46;;;;;;;4.00;2.85;;;18.40;99.90;;;;;;5093849;28;20197;-64
2022/06/29 06:28:12;;;;;;;3.10;2.70;;;18.50;99.90;;;;;;5093365;28;20259;-64
2022/06/29 06:30:38;;;;;;;5.15;2.80;;;18.60;99.90;;;;;;5092157;28;20264;-65
2022/06/29 06:33:04;;;;;;;3.67;2.90;;;18.70;99.90;;;;;;5093928;28;20583;-65
2022/06/29 06:35:30;;;;;;;3.15;2.53;;;18.80;99.90;;;;;;5093049;28;20197;-66
2022/06/29 06:37:56;;;;;;;4.22;2.83;;;18.80;99.90;;;;;;5096071;28;20196;-65
2022/06/29 06:43:07;;;;;;;2.55;2.33;;;18.90;99.90;;;;;;5097892;28;20576;-65
2022/06/29 06:45:32;;;;;;;2.67;2.47;;;19.00;99.90;;;;;;5097825;28;20173;-65
2022/06/29 06:47:58;;;;;;;5.05;3.00;;;19.00;99.90;;;;;;5096637;28;20227;-65
2022/06/29 06:50:24;;;;;;;3.60;2.75;;;19.00;99.90;;;;;;5098086;28;20192;-65
2022/06/29 06:52:50;;;;;;;2.78;2.53;;;19.00;99.90;;;;;;5098245;28;20173;-65
2022/06/29 06:55:16;;;;;;;4.00;2.50;;;19.00;99.90;;;;;;5098475;28;20332;-66
2022/06/29 06:57:41;;;;;;;2.72;2.53;;;19.10;99.90;;;;;;5098846;28;20548;-67
2022/06/29 07:00:09;;;;;;;5.60;2.53;;;19.10;99.90;;;;;;5099241;28;20226;-66
2022/06/29 07:02:35;;;;;;;3.40;2.47;;;19.10;99.90;;;;;;5097812;28;20517;-66
2022/06/29 07:05:03;;;;;;;2.47;2.28;;;19.10;99.90;;;;;;5097818;28;20166;-65
2022/06/29 07:07:28;;;;;;;3.42;2.47;;;19.10;99.90;;;;;;5098236;28;20224;-66
2022/06/29 07:09:54;;;;;;;4.90;3.15;;;19.10;99.90;;;;;;5097552;28;20181;-65
2022/06/29 07:12:20;;;;;;;3.15;2.78;;;19.20;99.90;;;;;;5096903;28;20165;-65
2022/06/29 07:14:46;;;;;;;3.67;2.10;;;19.20;99.90;;;;;;5095291;28;20208;-65
2022/06/29 07:17:12;;;;;;;2.88;2.45;;;19.20;99.90;;;;;;5095446;28;20641;-65
2022/06/29 07:19:38;;;;;;;2.88;2.35;;;19.20;99.90;;;;;;5095159;28;20189;-65
2022/06/29 07:22:04;;;;;;;3.78;2.70;;;19.20;99.90;;;;;;5096874;28;20202;-65
2022/06/29 07:24:30;;;;;;;3.10;2.85;;;19.20;99.90;;;;;;5096957;28;20173;-65
2022/06/29 07:26:56;;;;;;;4.15;2.58;;;19.20;99.90;;;;;;5095475;28;20298;-65
2022/06/29 07:29:22;;;;;;;4.55;2.67;;;19.20;99.90;;;;;;5096443;28;20173;-65
2022/06/29 07:31:49;;;;;;;4.53;2.72;;;19.20;99.90;;;;;;5096513;28;20169;-65
2022/06/29 07:34:15;;;;;;;3.45;2.47;;;19.20;99.90;;;;;;5096378;28;20184;-65
2022/06/29 07:36:40;;;;;;;2.97;2.50;;;19.20;99.90;;;;;;5096530;28;20239;-65
2022/06/29 07:39:06;;;;;;;3.97;2.58;;;19.20;99.90;;;;;;5096281;28;20204;-65
2022/06/29 07:41:32;;;;;;;3.10;2.70;;;19.20;99.90;;;;;;5096492;28;20173;-65
2022/06/29 07:43:58;;;;;;;2.78;2.42;;;19.20;99.90;;;;;;5096515;28;20652;-65
2022/06/29 07:46:24;;;;;;;7.20;2.88;;;19.20;99.90;;;;;;5096010;28;20201;-65
2022/06/29 07:48:50;;;;;;;4.82;2.78;;;19.30;99.90;;;;;;5095650;28;20177;-65
2022/06/29 07:51:16;;;;;;;3.55;2.70;;;19.40;99.90;;;;;;5096252;28;20188;-65
2022/06/29 07:53:42;;;;;;;6.07;2.70;;;19.50;99.90;;;;;;5096102;28;20173;-65
2022/06/29 07:56:07;;;;;;;4.20;2.70;;;19.60;99.90;;;;;;5096131;28;20211;-65
2022/06/29 07:58:33;;;;;;;2.65;2.45;;;19.70;99.90;;;;;;5096596;28;20248;-65
2022/06/29 08:00:59;;;;;;;3.58;2.80;;;19.80;99.90;;;;;;5094810;28;20615;-65
2022/06/29 08:03:25;;;;;;;4.30;2.85;;;19.80;99.90;;;;;;5095814;28;20176;-65
2022/06/29 08:05:51;;;;;;;3.95;2.55;;;20.00;99.90;;;;;;5094192;28;20200;-65
2022/06/29 08:08:17;;;;;;;4.88;2.67;;;20.10;99.90;;;;;;5094602;28;20185;-65
2022/06/29 08:10:42;;;;;;;2.50;2.30;;;20.20;99.90;;;;;;5094509;28;20177;-65
2022/06/29 08:13:08;;;;;;;4.05;2.70;;;20.20;99.90;;;;;;5096192;28;20185;-65
2022/06/29 08:15:34;;;;;;;3.88;2.75;;;20.20;99.90;;;;;;5095579;28;20666;-65
2022/06/29 08:18:01;;;;;;;3.70;2.55;;;20.20;99.90;;;;;;5095564;28;20275;-65
2022/06/29 08:20:28;;;;;;;5.10;2.65;;;20.20;99.90;;;;;;5093863;28;20173;-65
2022/06/29 08:22:54;;;;;;;3.30;2.60;;;20.20;99.90;;;;;;5095457;28;20165;-65
2022/06/29 08:25:20;;;;;;;4.22;2.63;;;20.20;99.90;;;;;;5095827;28;20178;-65
2022/06/29 08:27:52;;;;;;;2.75;2.35;;;20.20;99.90;;;;;;5095306;28;20196;-65
2022/06/29 08:30:18;;;;;;;2.65;2.30;;;20.10;99.90;;;;;;5094056;28;20165;-65
2022/06/29 08:32:44;;;;;;;3.55;2.75;;;20.10;99.90;;;;;;5095378;28;20196;-65
2022/06/29 08:35:12;;;;;;;4.38;2.55;;;20.10;99.90;;;;;;5094991;28;20253;-65
2022/06/29 08:37:38;;;;;;;3.25;2.45;;;20.00;99.90;;;;;;5095030;28;20290;-65
2022/06/29 08:40:09;;;;;;;5.68;3.33;;;20.10;99.90;;;;;;5095413;28;20187;-65
2022/06/29 08:42:38;;;;;;;5.00;2.90;;;20.10;99.90;;;;;;5095388;28;20207;-65
2022/06/29 08:45:06;;;;;;;2.88;2.65;;;20.10;99.90;;;;;;5095062;28;20256;-65
2022/06/29 08:47:31;;;;;;;2.83;2.55;;;20.10;99.90;;;;;;5094857;28;20686;-65
2022/06/29 08:49:57;;;;;;;4.13;3.03;;;20.10;99.90;;;;;;5093295;28;20189;-65
2022/06/29 08:52:28;;;;;;;4.07;3.05;;;20.10;99.90;;;;;;5094803;28;20204;-65
2022/06/29 08:54:54;;;;;;;4.85;3.30;;;20.10;99.90;;;;;;5093589;28;20645;-65
2022/06/29 08:57:22;;;;;;;7.85;3.00;;;20.00;99.90;;;;;;5094558;28;20689;-65
2022/06/29 08:59:51;;;;;;;5.75;3.30;;;19.90;99.90;;;;;;5093917;28;20207;-65
2022/06/29 09:02:17;;;;;;;4.13;3.28;;;19.80;99.90;;;;;;5094609;28;20169;-65
2022/06/29 09:04:43;;;;;;;3.00;2.70;;;19.70;99.90;;;;;;5094477;28;20191;-65
2022/06/29 09:07:09;;;;;;;4.40;3.42;;;19.70;99.90;;;;;;5094597;28;20262;-65
2022/06/29 09:09:59;;;;;;;4.72;3.22;;;19.70;99.90;;;;;;5094849;28;20169;-66
2022/06/29 09:12:26;;;;;;;4.93;2.97;;;19.80;99.90;;;;;;5094540;28;20265;-65
2022/06/29 09:14:52;;;;;;;6.28;3.30;;;19.80;99.90;;;;;;5093239;28;20197;-66
2022/06/29 09:17:18;;;;;;;4.38;3.28;;;19.80;99.90;;;;;;5094816;28;20213;-65
2022/06/29 09:19:46;;;;;;;4.80;3.30;;;19.80;99.90;;;;;;5094139;28;20181;-65
2022/06/29 09:22:13;;;;;;;5.35;2.60;;;19.80;99.90;;;;;;5094341;28;20179;-65
2022/06/29 09:24:39;;;;;;;4.80;2.75;;;19.90;99.90;;;;;;5094246;28;20176;-65
2022/06/29 09:27:07;;;;;;;3.25;2.90;;;20.00;99.90;;;;;;5094193;28;20189;-65
2022/06/29 09:29:41;;;;;;;3.53;3.05;;;20.10;99.90;;;;;;5094149;28;20169;-65
2022/06/29 09:32:08;;;;;;;4.40;2.90;;;20.10;99.90;;;;;;5094304;28;20232;-65
2022/06/29 09:34:52;;;;;;;4.78;3.00;;;20.20;99.90;;;;;;5093965;28;20173;-67
2022/06/29 09:37:20;;;;;;;6.28;3.30;;;20.30;99.90;;;;;;5094348;28;20701;-69
2022/06/29 09:39:48;;;;;;;5.00;3.40;;;20.30;99.90;;;;;;5094347;28;20181;-68
2022/06/29 09:42:24;;;;;;;4.10;3.10;;;20.40;99.90;;;;;;5094118;28;20169;-68
2022/06/29 09:44:50;;;;;;;7.95;3.83;;;20.50;99.90;;;;;;5094254;28;20161;-68
2022/06/29 09:47:21;;;;;;;7.43;3.60;;;20.60;99.90;;;;;;5094017;28;20284;-68
2022/06/29 09:49:52;;;;;;;6.60;2.72;;;20.70;99.90;;;;;;5093652;28;20185;-68
2022/06/29 09:52:19;;;;;;;6.93;4.05;;;20.70;99.90;;;;;;5094172;28;20166;-68
2022/06/29 09:54:51;;;;;;;6.78;3.03;;;20.80;99.90;;;;;;5094100;28;20164;-68
2022/06/29 09:57:19;;;;;;;5.40;3.15;;;20.80;99.90;;;;;;5093989;28;20207;-68
2022/06/29 10:02:39;;;;;;;4.28;3.35;;;21.00;99.90;;;;;;5093811;28;20534;-69
2022/06/29 10:05:08;;;;;;;3.90;3.05;;;21.10;99.90;;;;;;5092848;28;20549;-69
2022/06/29 10:07:36;;;;;;;3.30;2.97;;;21.10;99.90;;;;;;5093732;28;20189;-69
2022/06/29 10:10:04;;;;;;;7.20;3.22;;;21.20;99.90;;;;;;5094216;28;20169;-69
2022/06/29 10:15:45;;;;;;;4.55;2.90;;;21.40;99.90;;;;;;5093691;28;20265;-69
2022/06/29 10:18:31;;;;;;;6.38;2.97;;;21.40;99.90;;;;;;5094202;28;20169;-69
2022/06/29 10:20:58;;;;;;;4.90;2.95;;;21.60;99.90;;;;;;5086254;28;20207;-69
2022/06/29 10:23:46;;;;;;;5.68;3.55;;;21.60;99.90;;;;;;5093685;28;20197;-67
2022/06/29 10:26:37;;;;;;;4.78;3.42;;;21.70;99.90;;;;;;5093401;28;20245;-67
2022/06/29 10:29:06;;;;;;;4.15;3.03;;;21.80;99.90;;;;;;5094168;28;20215;-67
2022/06/29 10:31:59;;;;;;;3.95;3.20;;;21.80;99.90;;;;;;5093556;28;20176;-67
2022/06/29 10:34:31;;;;;;;3.83;3.22;;;21.90;99.90;;;;;;5093434;28;20163;-67
2022/06/29 10:37:02;;;;;;;3.60;2.92;;;22.10;99.90;;;;;;5093220;28;20711;-67
2022/06/29 10:39:43;;;;;;;4.07;3.28;;;22.30;99.90;;;;;;5093518;28;20166;-67
2022/06/29 10:45:09;;;;;;;4.20;3.20;;;22.70;99.90;;;;;;5093229;28;20164;-67
2022/06/29 10:47:35;;;;;;;4.03;2.97;;;22.90;99.90;;;;;;5093332;28;20185;-68
2022/06/29 10:50:14;;;;;;;3.95;3.03;;;23.00;99.90;;;;;;5107374;28;20223;-67
2022/06/29 10:52:40;;;;;;;4.82;3.50;;;23.00;99.90;;;;;;5113526;28;20245;-67
2022/06/29 10:55:07;;;;;;;4.72;3.35;;;23.00;99.90;;;;;;5113436;28;20169;-68
2022/06/29 10:57:34;;;;;;;4.97;3.05;;;23.10;99.90;;;;;;5113444;28;20268;-67
2022/06/29 11:00:00;;;;;;;4.55;3.55;;;23.10;99.90;;;;;;5113992;28;20595;-67
2022/06/29 11:02:25;;;;;;;5.13;3.28;;;23.20;99.90;;;;;;5113729;28;20200;-67
2022/06/29 11:04:51;;;;;;;5.68;3.55;;;23.20;99.90;;;;;;5113332;28;20165;-68
2022/06/29 11:12:54;;;;;;;5.20;3.40;;;23.40;99.90;;;;;;5113555;28;20237;-68
2022/06/29 11:15:47;;;;;;;4.68;3.53;;;23.40;99.90;;;;;;5113415;28;20652;-68
2022/06/29 11:18:19;;;;;;;5.10;3.38;;;23.50;99.90;;;;;;5113647;28;20157;-68
2022/06/29 11:20:50;;;;;;;5.07;3.60;;;23.50;99.90;;;;;;5111836;28;20168;-68
2022/06/29 11:23:19;;;;;;;4.63;3.45;;;23.60;99.90;;;;;;5114397;28;20180;-68
2022/06/29 11:25:54;;;;;;;5.25;3.83;;;23.60;99.90;;;;;;5116854;28;20637;-68
2022/06/29 11:28:21;;;;;;;6.05;4.20;;;23.70;99.90;;;;;;5116902;28;20157;-68
2022/06/29 11:31:08;;;;;;;6.22;3.45;;;23.60;99.90;;;;;;5116841;28;20168;-68
2022/06/29 11:33:36;;;;;;;6.20;3.83;;;23.60;99.90;;;;;;5116838;28;20169;-67
2022/06/29 11:36:20;;;;;;;3.88;3.47;;;23.50;99.90;;;;;;5116299;28;20680;-68
2022/06/29 11:38:48;;;;;;;5.05;3.53;;;23.40;99.90;;;;;;5116978;28;20224;-67
2022/06/29 11:43:03;;;;;;;4.82;3.80;;;23.20;99.90;;;;;;5116631;28;20169;-67
2022/06/29 11:44:27;;;;;;;4.65;4.03;;;23.10;99.90;;;;;;5116479;28;20190;-67
2022/06/29 11:46:54;;;;;;;6.10;4.18;;;22.90;99.90;;;;;;5115256;28;20199;-67
2022/06/29 11:49:39;;;;;;;5.03;4.10;;;22.70;99.90;;;;;;5115420;28;20191;-68
2022/06/29 11:52:12;;;;;;;4.18;3.75;;;22.50;99.90;;;;;;5116784;28;20213;-67
2022/06/29 11:54:41;;;;;;;4.55;3.47;;;22.40;99.90;;;;;;5116733;28;20163;-67
2022/06/29 11:57:12;;;;;;;5.18;4.10;;;22.20;99.90;;;;;;5116293;28;20208;-67
2022/06/29 11:59:39;;;;;;;4.97;4.07;;;22.10;99.90;;;;;;5116368;28;20223;-67
2022/06/29 12:02:06;;;;;;;4.50;3.83;;;21.90;99.90;;;;;;5116239;28;20172;-67
2022/06/29 12:04:34;;;;;;;5.50;3.90;;;21.80;99.90;;;;;;5114651;28;20176;-68
2022/06/29 12:07:09;;;;;;;5.10;4.03;;;21.80;99.90;;;;;;5116123;28;20192;-68
2022/06/29 12:09:39;;;;;;;5.38;3.65;;;21.80;99.90;;;;;;5116362;28;20187;-67
2022/06/29 12:12:07;;;;;;;7.80;4.55;;;21.80;99.90;;;;;;5116148;28;20255;-67
2022/06/29 12:14:34;;;;;;;7.25;4.20;;;21.80;99.90;;;;;;5115060;28;20578;-67
2022/06/29 12:17:00;;;;;;;8.55;4.72;;;21.90;99.90;;;;;;5115775;28;20215;-67
2022/06/29 12:19:26;;;;;;;5.95;4.10;;;22.10;99.90;;;;;;5116123;28;20180;-67
2022/06/29 12:21:53;;;;;;;4.63;4.05;;;22.20;99.90;;;;;;5115678;28;20706;-67
2022/06/29 12:24:20;;;;;;;6.45;4.30;;;22.40;99.90;;;;;;5116159;28;20223;-68
2022/06/29 12:26:46;;;;;;;4.85;4.30;;;22.50;99.90;;;;;;5115868;28;20203;-67
2022/06/29 12:29:13;;;;;;;4.88;4.22;;;22.50;99.90;;;;;;5116072;28;20672;-67
2022/06/29 12:31:41;;;;;;;6.43;4.35;;;22.60;99.90;;;;;;5115915;28;20207;-67
2022/06/29 12:34:07;;;;;;;8.15;4.45;;;22.70;99.90;;;;;;5114353;28;20275;-67
2022/06/29 12:36:34;;;;;;;6.53;4.30;;;22.80;99.90;;;;;;5113933;28;20212;-68
2022/06/29 12:38:59;;;;;;;5.20;4.00;;;22.90;99.90;;;;;;5115997;28;20182;-67
2022/06/29 12:41:26;;;;;;;5.65;4.57;;;22.90;99.90;;;;;;5115971;28;20169;-67
2022/06/29 12:43:52;;;;;;;4.32;3.80;;;23.10;99.90;;;;;;5115670;28;20565;-67
2022/06/29 12:46:18;;;;;;;7.07;4.40;;;23.30;99.90;;;;;;5115379;28;20192;-68
2022/06/29 12:48:43;;;;;;;5.10;4.30;;;23.50;99.90;;;;;;5115610;28;20184;-68
2022/06/29 12:51:09;;;;;;;7.30;5.07;;;23.60;99.90;;;;;;5115314;28;20176;-68
2022/06/29 12:53:36;;;;;;;5.57;4.78;;;23.80;99.90;;;;;;5116120;27;20157;-68
2022/06/29 12:56:03;;;;;;;6.00;4.25;;;24.00;99.90;;;;;;5115191;28;20245;-67
2022/06/29 12:58:29;;;;;;;7.47;5.03;;;24.20;99.90;;;;;;5114013;28;20265;-66
2022/06/29 13:00:55;;;;;;;5.53;4.13;;;24.40;99.90;;;;;;5115762;28;20243;-67
2022/06/29 13:03:20;;;;;;;5.35;4.40;;;24.50;99.90;;;;;;5115260;28;20181;-66
2022/06/29 13:05:46;;;;;;;7.47;4.93;;;24.60;99.90;;;;;;5114947;28;20238;-66
2022/06/29 13:08:13;;;;;;;5.18;4.32;;;24.80;99.90;;;;;;5115198;28;20653;-66
2022/06/29 13:10:39;;;;;;;5.68;4.75;;;24.90;99.90;;;;;;5115269;28;20178;-66
2022/06/29 13:13:04;;;;;;;8.13;5.40;;;25.00;99.90;;;;;;5116003;28;20236;-66
2022/06/29 13:15:30;;;;;;;7.05;5.07;;;25.00;99.90;;;;;;5115173;28;20211;-65
2022/06/29 13:17:56;;;;;;;5.65;4.43;;;25.10;99.90;;;;;;5114942;28;20224;-64